Time;durP1;ratioP1;P1;durP2;ratioP2;P2;SDS_P1;SDS_P2;PMS_P1;PMS_P2;Temp;Humidity;BMP_temperature;BMP_pressure;BME280_temperature;BME280_humidity;BME280_pressure;Samples;Min_cycle;Max_cycle;Signal;HPM_P1;HPM_P2
2022/07/25 00:00:53;;;;;;;3.05;2.08;;;23.20;99.90;;;;;;5044755;28;20080;-66
2022/07/25 00:03:18;;;;;;;3.67;2.05;;;23.00;99.90;;;;;;5047710;28;20118;-66
2022/07/25 00:05:44;;;;;;;4.45;2.33;;;22.90;99.90;;;;;;5043118;28;20033;-66
2022/07/25 00:08:09;;;;;;;4.40;1.98;;;23.40;99.90;;;;;;5048287;28;20119;-66
2022/07/25 00:10:35;;;;;;;3.13;1.85;;;22.80;99.90;;;;;;5047375;28;20454;-66
2022/07/25 00:13:01;;;;;;;3.92;2.40;;;22.90;99.90;;;;;;5049518;28;20446;-66
2022/07/25 00:15:26;;;;;;;3.47;2.10;;;23.00;99.90;;;;;;5042015;28;20411;-66
2022/07/25 00:17:52;;;;;;;7.35;2.30;;;23.20;99.90;;;;;;5046633;28;20485;-66
2022/07/25 00:20:17;;;;;;;2.58;1.90;;;22.90;99.90;;;;;;5043529;28;20064;-66
2022/07/25 00:22:43;;;;;;;4.90;2.40;;;22.80;99.90;;;;;;5052129;28;20033;-66
2022/07/25 00:25:09;;;;;;;3.42;1.95;;;22.90;99.90;;;;;;5046314;28;20045;-66
2022/07/25 00:27:34;;;;;;;5.28;2.20;;;22.80;99.90;;;;;;5048979;28;20047;-66
2022/07/25 00:30:00;;;;;;;5.28;2.55;;;22.80;99.90;;;;;;5047684;28;20033;-66
2022/07/25 00:32:25;;;;;;;8.10;2.58;;;22.90;99.90;;;;;;5047112;28;20033;-66
2022/07/25 00:34:51;;;;;;;2.90;2.13;;;22.70;99.90;;;;;;5047752;28;20086;-66
2022/07/25 00:37:16;;;;;;;10.75;3.53;;;22.90;99.90;;;;;;5042303;28;20051;-66
2022/07/25 00:39:42;;;;;;;5.25;2.30;;;22.70;99.90;;;;;;5046234;28;20030;-66
2022/07/25 00:42:07;;;;;;;4.50;2.97;;;23.00;99.90;;;;;;5046790;28;20102;-66
2022/07/25 00:44:34;;;;;;;4.60;2.80;;;22.70;99.90;;;;;;5048303;28;20028;-66
2022/07/25 00:46:59;;;;;;;3.47;2.42;;;22.70;99.90;;;;;;5050651;28;20048;-66
2022/07/25 00:49:25;;;;;;;4.30;2.78;;;22.70;99.90;;;;;;5052938;28;20403;-66
2022/07/25 00:51:53;;;;;;;5.30;2.80;;;22.70;99.90;;;;;;5051993;28;20049;-66
2022/07/25 00:54:19;;;;;;;6.72;2.75;;;22.80;99.90;;;;;;5047263;28;20036;-66
2022/07/25 00:56:46;;;;;;;5.78;3.15;;;22.60;99.90;;;;;;5042384;28;20044;-66
2022/07/25 00:59:11;;;;;;;5.05;2.65;;;22.70;99.90;;;;;;5042181;28;20053;-66
2022/07/25 01:01:37;;;;;;;5.90;3.00;;;22.60;99.90;;;;;;5050979;28;20044;-66
2022/07/25 01:04:04;;;;;;;4.90;2.92;;;22.40;99.90;;;;;;5047290;28;20033;-66
2022/07/25 01:06:30;;;;;;;3.47;3.10;;;22.50;99.90;;;;;;5047733;28;20052;-66
2022/07/25 01:08:56;;;;;;;5.72;3.63;;;22.70;99.90;;;;;;5050414;28;20034;-66
2022/07/25 01:11:22;;;;;;;4.65;3.38;;;23.90;99.90;;;;;;5051445;28;20499;-66
2022/07/25 01:13:51;;;;;;;4.22;2.90;;;22.50;99.90;;;;;;5049898;28;20041;-66
2022/07/25 01:16:17;;;;;;;4.95;3.58;;;22.30;99.90;;;;;;5050831;28;20060;-66
2022/07/25 01:18:43;;;;;;;8.57;3.78;;;22.30;99.90;;;;;;5053010;28;20041;-66
2022/07/25 01:21:09;;;;;;;5.03;3.38;;;22.50;99.90;;;;;;5048755;28;20044;-66
2022/07/25 01:23:35;;;;;;;8.48;3.53;;;22.30;99.90;;;;;;5047303;28;20107;-66
2022/07/25 01:26:00;;;;;;;6.65;4.40;;;22.50;99.90;;;;;;5041944;28;20586;-66
2022/07/25 01:28:26;;;;;;;5.50;3.70;;;22.60;99.90;;;;;;5050781;28;20037;-66
2022/07/25 01:30:52;;;;;;;5.72;4.25;;;22.60;99.90;;;;;;5047291;28;20086;-66
2022/07/25 01:33:19;;;;;;;5.38;4.18;;;22.30;99.90;;;;;;5045565;28;20060;-66
2022/07/25 01:35:48;;;;;;;7.07;5.40;;;22.20;99.90;;;;;;5047285;28;20045;-66
2022/07/25 01:38:14;;;;;;;6.38;4.80;;;22.20;99.90;;;;;;5047649;28;20048;-66
2022/07/25 01:40:42;;;;;;;6.75;4.35;;;22.20;99.90;;;;;;5046701;28;20089;-66
2022/07/25 01:43:08;;;;;;;7.68;4.60;;;22.40;99.90;;;;;;5047220;28;20364;-66
2022/07/25 01:45:37;;;;;;;6.07;4.60;;;22.10;99.90;;;;;;5042164;28;20044;-66
2022/07/25 01:48:05;;;;;;;7.55;5.05;;;22.20;99.90;;;;;;5051287;28;20239;-66
2022/07/25 01:50:30;;;;;;;6.65;4.47;;;22.10;99.90;;;;;;5042340;28;20391;-66
2022/07/25 01:52:56;;;;;;;5.28;4.70;;;22.20;99.90;;;;;;5050497;28;20027;-66
2022/07/25 01:55:22;;;;;;;7.32;4.43;;;22.20;99.90;;;;;;5052740;28;20569;-66
2022/07/25 01:57:47;;;;;;;7.43;5.03;;;22.20;99.90;;;;;;5043903;28;20565;-66
2022/07/25 02:00:14;;;;;;;7.07;5.00;;;22.20;99.90;;;;;;5045828;28;20402;-66
2022/07/25 02:02:42;;;;;;;8.73;4.57;;;21.90;99.90;;;;;;5046231;28;20037;-66
2022/07/25 02:05:10;;;;;;;8.23;4.57;;;21.60;99.90;;;;;;5045775;28;20057;-66
2022/07/25 02:07:38;;;;;;;6.95;5.07;;;21.80;99.90;;;;;;5047785;28;20070;-66
2022/07/25 02:10:05;;;;;;;6.30;4.85;;;21.60;99.90;;;;;;5046626;28;20028;-66
2022/07/25 02:12:31;;;;;;;8.27;5.10;;;21.80;99.90;;;;;;5049020;28;20399;-66
2022/07/25 02:14:57;;;;;;;6.70;5.43;;;21.70;99.90;;;;;;5049538;28;20132;-66
2022/07/25 02:17:22;;;;;;;7.78;5.85;;;21.80;99.90;;;;;;5047154;28;20469;-66
2022/07/25 02:19:48;;;;;;;8.02;4.88;;;21.40;99.90;;;;;;5048406;28;20039;-66
2022/07/25 02:22:14;;;;;;;8.55;5.30;;;21.50;99.90;;;;;;5046758;28;20036;-66
2022/07/25 02:24:39;;;;;;;5.45;4.80;;;21.60;99.90;;;;;;5050606;28;20033;-66
2022/07/25 02:27:05;;;;;;;6.07;4.88;;;21.60;99.90;;;;;;5042348;28;20037;-66
2022/07/25 02:29:31;;;;;;;9.30;5.88;;;22.50;99.90;;;;;;5045120;28;20033;-66
2022/07/25 02:31:56;;;;;;;7.80;5.10;;;21.20;99.90;;;;;;5044943;28;20767;-66
2022/07/25 02:34:29;;;;;;;7.75;4.90;;;21.20;99.90;;;;;;5053436;28;20056;-66
2022/07/25 02:36:55;;;;;;;7.32;5.53;;;21.20;99.90;;;;;;5050533;28;20095;-66
2022/07/25 02:39:20;;;;;;;7.20;5.57;;;21.20;99.90;;;;;;5048043;28;20044;-66
2022/07/25 02:41:46;;;;;;;8.02;6.28;;;21.30;99.90;;;;;;5047196;28;20033;-66
2022/07/25 02:44:14;;;;;;;5.70;5.10;;;21.10;99.90;;;;;;5044410;28;20039;-66
2022/07/25 02:46:42;;;;;;;5.93;4.47;;;21.30;99.90;;;;;;5041067;28;20461;-66
2022/07/25 02:49:08;;;;;;;6.47;4.63;;;21.20;99.90;;;;;;5053995;28;20125;-66
2022/07/25 02:51:33;;;;;;;6.68;5.03;;;21.20;99.90;;;;;;5048749;28;20491;-66
2022/07/25 02:53:59;;;;;;;6.65;5.28;;;20.90;99.90;;;;;;5046855;28;20118;-66
2022/07/25 02:56:25;;;;;;;9.65;5.75;;;20.80;99.90;;;;;;5043914;28;20072;-66
2022/07/25 02:58:51;;;;;;;6.20;5.20;;;20.90;99.90;;;;;;5048990;28;20049;-66
2022/07/25 03:01:17;;;;;;;7.72;5.20;;;20.90;99.90;;;;;;5047484;28;20048;-66
2022/07/25 03:03:42;;;;;;;6.32;5.07;;;20.70;99.90;;;;;;5043104;28;20033;-66
2022/07/25 03:06:08;;;;;;;7.82;5.03;;;20.50;99.90;;;;;;5049003;28;20044;-66
2022/07/25 03:08:33;;;;;;;11.18;5.07;;;20.60;99.90;;;;;;5045443;28;20379;-66
2022/07/25 03:10:59;;;;;;;5.68;4.93;;;20.80;99.90;;;;;;5028502;28;20150;-66
2022/07/25 03:13:24;;;;;;;6.93;4.72;;;20.60;99.90;;;;;;5045665;28;20036;-66
2022/07/25 03:15:50;;;;;;;5.03;4.43;;;20.70;99.90;;;;;;5053059;28;20044;-66
2022/07/25 03:18:18;;;;;;;4.90;4.40;;;20.60;99.90;;;;;;5049318;28;20041;-66
2022/07/25 03:20:44;;;;;;;5.60;4.85;;;20.60;99.90;;;;;;5043472;28;20052;-66
2022/07/25 03:23:10;;;;;;;5.53;4.03;;;20.90;99.90;;;;;;5044655;28;20056;-66
2022/07/25 03:25:35;;;;;;;7.40;5.00;;;20.50;99.90;;;;;;5049841;28;20076;-66
2022/07/25 03:28:01;;;;;;;8.00;4.63;;;20.50;99.90;;;;;;5029126;28;20426;-66
2022/07/25 03:30:26;;;;;;;6.68;5.40;;;20.70;99.90;;;;;;5051503;28;20506;-66
2022/07/25 03:32:53;;;;;;;8.07;5.60;;;20.60;99.90;;;;;;5048208;28;20033;-66
2022/07/25 03:35:19;;;;;;;6.80;5.20;;;21.00;99.90;;;;;;5025612;28;20072;-66
2022/07/25 03:37:44;;;;;;;6.85;5.75;;;20.60;99.90;;;;;;5047185;28;20503;-66
2022/07/25 03:40:11;;;;;;;8.32;6.70;;;20.70;99.90;;;;;;5050197;28;20048;-66
2022/07/25 03:42:36;;;;;;;7.28;5.22;;;20.90;99.90;;;;;;5043681;28;20143;-66
2022/07/25 03:45:02;;;;;;;6.57;5.38;;;20.90;99.90;;;;;;5037438;28;20041;-66
2022/07/25 03:47:28;;;;;;;10.63;6.45;;;20.80;99.90;;;;;;5041952;28;20034;-66
2022/07/25 03:49:54;;;;;;;7.72;6.40;;;20.60;99.90;;;;;;5044529;28;20040;-66
2022/07/25 03:52:19;;;;;;;11.05;6.40;;;20.80;99.90;;;;;;5048168;28;21262;-66
2022/07/25 03:54:45;;;;;;;7.50;6.18;;;20.80;99.90;;;;;;5054975;28;20045;-66
2022/07/25 03:57:11;;;;;;;8.23;6.25;;;20.90;99.90;;;;;;5050194;28;20045;-66
2022/07/25 03:59:37;;;;;;;7.50;6.72;;;20.70;99.90;;;;;;5053352;28;20044;-66
2022/07/25 04:02:03;;;;;;;8.45;7.00;;;20.60;99.90;;;;;;5051340;28;20041;-66
2022/07/25 04:04:29;;;;;;;8.68;6.18;;;20.80;99.90;;;;;;5054767;28;20071;-66
2022/07/25 04:06:54;;;;;;;10.55;7.22;;;20.70;99.90;;;;;;5051257;28;20084;-66
2022/07/25 04:09:20;;;;;;;9.18;7.50;;;20.80;99.90;;;;;;5050574;28;20086;-66
2022/07/25 04:11:46;;;;;;;13.43;7.32;;;20.50;99.90;;;;;;5050959;28;20048;-66
2022/07/25 04:14:12;;;;;;;10.88;7.78;;;22.80;99.90;;;;;;5051094;28;20037;-66
2022/07/25 04:16:37;;;;;;;8.85;7.13;;;20.40;99.90;;;;;;5051671;28;20406;-66
2022/07/25 04:19:04;;;;;;;10.13;7.57;;;20.70;99.90;;;;;;5050250;28;20059;-66
2022/07/25 04:21:29;;;;;;;10.60;7.43;;;20.70;99.90;;;;;;5059053;28;20720;-66
2022/07/25 04:23:55;;;;;;;10.07;7.50;;;20.40;99.90;;;;;;5053112;28;20033;-66
2022/07/25 04:26:21;;;;;;;9.23;7.95;;;20.50;99.90;;;;;;5049907;28;20119;-66
2022/07/25 04:28:46;;;;;;;9.30;7.53;;;20.40;99.90;;;;;;5047138;28;20396;-66
2022/07/25 04:31:12;;;;;;;10.48;7.47;;;20.40;99.90;;;;;;5050115;28;20510;-66
2022/07/25 04:33:39;;;;;;;10.30;8.27;;;20.60;99.90;;;;;;5051765;28;20040;-66
2022/07/25 04:36:05;;;;;;;10.77;8.52;;;20.40;99.90;;;;;;5044077;28;20048;-66
2022/07/25 04:38:31;;;;;;;12.60;8.85;;;20.70;99.90;;;;;;5050399;28;20063;-66
2022/07/25 04:40:57;;;;;;;13.70;9.50;;;20.50;99.90;;;;;;5055304;28;20044;-66
2022/07/25 04:43:23;;;;;;;13.63;9.95;;;20.80;99.90;;;;;;5053555;28;20421;-66
2022/07/25 04:45:48;;;;;;;13.88;10.27;;;20.60;99.90;;;;;;5048278;28;20080;-66
2022/07/25 04:48:14;;;;;;;13.77;9.98;;;20.70;99.90;;;;;;5037274;28;20033;-66
2022/07/25 04:50:39;;;;;;;13.70;10.32;;;20.80;99.90;;;;;;5049921;28;20041;-66
2022/07/25 04:53:05;;;;;;;11.57;8.40;;;20.70;99.90;;;;;;5050960;28;20393;-66
2022/07/25 04:55:31;;;;;;;12.02;9.75;;;21.00;99.90;;;;;;5053229;28;20041;-66
2022/07/25 04:57:58;;;;;;;12.70;10.23;;;20.90;99.90;;;;;;5047204;28;20052;-66
2022/07/25 05:00:24;;;;;;;15.32;10.75;;;20.90;99.90;;;;;;5039342;28;20068;-66
2022/07/25 05:02:50;;;;;;;13.68;10.50;;;20.90;99.90;;;;;;5049118;28;20053;-66
2022/07/25 05:05:16;;;;;;;13.93;11.10;;;20.80;99.90;;;;;;5049918;28;20044;-66
2022/07/25 05:07:42;;;;;;;12.85;10.70;;;20.90;99.90;;;;;;5052336;28;20040;-66
2022/07/25 05:10:08;;;;;;;14.10;10.65;;;20.80;99.90;;;;;;5052394;28;20044;-66
2022/07/25 05:12:33;;;;;;;15.27;11.13;;;21.00;99.90;;;;;;5051609;28;20396;-66
2022/07/25 05:14:59;;;;;;;13.38;11.40;;;21.00;99.90;;;;;;5051289;28;20044;-66
2022/07/25 05:17:24;;;;;;;14.68;10.70;;;20.90;99.90;;;;;;5052131;28;20040;-66
2022/07/25 05:19:50;;;;;;;15.30;10.98;;;21.20;99.90;;;;;;5051770;28;20044;-66
2022/07/25 05:22:16;;;;;;;14.82;11.20;;;21.00;99.90;;;;;;5054721;28;20033;-66
2022/07/25 05:24:41;;;;;;;13.38;10.82;;;20.90;99.90;;;;;;5050164;28;20052;-67
2022/07/25 05:27:07;;;;;;;16.10;11.43;;;20.90;99.90;;;;;;5050095;28;20541;-67
2022/07/25 05:29:33;;;;;;;15.75;12.05;;;20.80;99.90;;;;;;5050709;28;20037;-67
2022/07/25 05:31:58;;;;;;;13.65;10.95;;;20.70;99.90;;;;;;5048480;28;20078;-66
2022/07/25 05:34:24;;;;;;;14.27;12.07;;;21.10;99.90;;;;;;5053246;28;20041;-66
2022/07/25 05:36:49;;;;;;;17.08;11.35;;;21.10;99.90;;;;;;5031383;28;20046;-66
2022/07/25 05:39:18;;;;;;;13.90;11.52;;;20.90;99.90;;;;;;5051378;28;20036;-66
2022/07/25 05:41:43;;;;;;;15.48;11.55;;;21.10;99.90;;;;;;5052335;28;20029;-66
2022/07/25 05:44:09;;;;;;;12.50;10.50;;;21.10;99.90;;;;;;5047166;28;20107;-66
2022/07/25 05:46:35;;;;;;;15.35;11.38;;;20.80;99.90;;;;;;5049714;28;20072;-66
2022/07/25 05:49:00;;;;;;;16.90;11.10;;;21.00;99.90;;;;;;5047342;28;20518;-66
2022/07/25 05:51:26;;;;;;;14.43;12.23;;;21.10;99.90;;;;;;5049481;28;20033;-66
2022/07/25 05:53:54;;;;;;;14.10;11.52;;;21.30;99.90;;;;;;5048316;28;20526;-63
2022/07/25 05:56:20;;;;;;;14.88;11.18;;;21.20;99.90;;;;;;5051235;28;20076;-63
2022/07/25 05:58:46;;;;;;;12.80;10.98;;;21.30;99.90;;;;;;5049638;28;20493;-63
2022/07/25 06:01:12;;;;;;;13.48;11.18;;;21.50;99.90;;;;;;5033820;28;20132;-62
2022/07/25 06:03:38;;;;;;;17.58;10.40;;;21.40;99.90;;;;;;5051039;28;20041;-62
2022/07/25 06:06:04;;;;;;;13.05;11.02;;;21.10;99.90;;;;;;5049863;28;20044;-62
2022/07/25 06:08:30;;;;;;;16.23;10.60;;;21.30;99.90;;;;;;5052140;28;20041;-62
2022/07/25 06:10:59;;;;;;;14.50;10.75;;;21.40;99.90;;;;;;5046579;28;20058;-63
2022/07/25 06:13:25;;;;;;;14.50;10.68;;;21.30;99.90;;;;;;5046299;28;20506;-63
2022/07/25 06:15:51;;;;;;;13.35;10.13;;;21.60;99.90;;;;;;5051874;28;20037;-62
2022/07/25 06:18:17;;;;;;;15.07;10.43;;;21.60;99.90;;;;;;5051620;28;20037;-63
2022/07/25 06:20:42;;;;;;;14.00;11.07;;;21.70;99.90;;;;;;5050238;28;20048;-64
2022/07/25 06:23:08;;;;;;;14.55;10.32;;;21.60;99.90;;;;;;5046403;28;20041;-63
2022/07/25 06:25:34;;;;;;;14.50;10.10;;;22.30;99.90;;;;;;5046321;28;20049;-63
2022/07/25 06:28:00;;;;;;;12.13;9.60;;;21.70;99.90;;;;;;5044821;28;20372;-63
2022/07/25 06:30:27;;;;;;;13.30;9.82;;;22.20;99.90;;;;;;5042102;28;20091;-64
2022/07/25 06:32:52;;;;;;;12.65;9.75;;;22.00;99.90;;;;;;5041068;28;20162;-63
2022/07/25 06:35:18;;;;;;;12.82;10.45;;;22.20;99.90;;;;;;5052053;28;20064;-63
2022/07/25 06:37:44;;;;;;;20.45;11.40;;;22.60;99.90;;;;;;5049965;28;20041;-64
2022/07/25 06:40:10;;;;;;;12.70;10.52;;;22.90;99.90;;;;;;5047041;28;20411;-63
2022/07/25 06:42:44;;;;;;;12.52;9.23;;;23.40;99.90;;;;;;5048380;28;20028;-63
2022/07/25 06:45:10;;;;;;;13.83;9.90;;;23.50;99.90;;;;;;5048947;28;20498;-64
2022/07/25 06:47:37;;;;;;;14.70;10.30;;;23.40;99.90;;;;;;5046606;28;20391;-64
2022/07/25 06:50:08;;;;;;;15.27;11.15;;;23.60;99.90;;;;;;5048473;28;20518;-64
2022/07/25 06:52:35;;;;;;;12.48;9.88;;;23.20;99.90;;;;;;5045360;28;20069;-64
2022/07/25 06:55:02;;;;;;;11.65;9.40;;;23.10;99.90;;;;;;5050735;28;20466;-64
2022/07/25 06:57:28;;;;;;;15.02;9.75;;;23.00;99.90;;;;;;5038975;28;20549;-64
2022/07/25 06:59:53;;;;;;;14.05;9.65;;;23.20;99.90;;;;;;5048792;28;20127;-64
2022/07/25 07:02:19;;;;;;;13.75;9.70;;;22.80;99.90;;;;;;5035655;28;20486;-65
2022/07/25 07:04:44;;;;;;;9.82;8.75;;;22.80;99.90;;;;;;5051704;28;20032;-67
2022/07/25 07:07:10;;;;;;;12.43;9.38;;;22.90;99.90;;;;;;5042070;28;20045;-67
2022/07/25 07:09:36;;;;;;;16.48;9.82;;;23.10;99.90;;;;;;5048297;28;20035;-67
2022/07/25 07:12:01;;;;;;;15.65;12.02;;;23.10;99.90;;;;;;5041234;28;20445;-66
2022/07/25 07:14:27;;;;;;;27.52;18.52;;;23.30;99.90;;;;;;5046200;28;20396;-65
2022/07/25 07:16:52;;;;;;;13.10;9.90;;;23.30;99.90;;;;;;5050436;28;20052;-67
2022/07/25 07:19:18;;;;;;;13.77;9.60;;;23.10;99.90;;;;;;5050104;28;20154;-68
2022/07/25 07:21:44;;;;;;;9.40;8.32;;;23.30;99.90;;;;;;5049710;28;20118;-64
2022/07/25 07:24:10;;;;;;;13.07;9.63;;;23.20;99.90;;;;;;5044149;28;20040;-64
2022/07/25 07:26:35;;;;;;;11.65;8.15;;;24.70;99.90;;;;;;5046503;28;20033;-64
2022/07/25 07:29:04;;;;;;;11.70;7.95;;;23.40;99.90;;;;;;5046583;28;20527;-64
2022/07/25 07:31:29;;;;;;;11.45;7.28;;;23.30;99.90;;;;;;5042808;28;20174;-63
2022/07/25 07:33:57;;;;;;;12.30;8.40;;;23.60;99.90;;;;;;5046145;28;20492;-63
2022/07/25 07:36:24;;;;;;;10.65;7.68;;;23.50;99.90;;;;;;5046006;28;20518;-64
2022/07/25 07:38:51;;;;;;;10.45;7.28;;;23.40;99.90;;;;;;5040567;28;20518;-63
2022/07/25 07:41:20;;;;;;;9.82;7.13;;;23.80;99.90;;;;;;5047074;28;20049;-63
2022/07/25 07:43:46;;;;;;;10.40;6.93;;;23.80;99.90;;;;;;5045496;28;20048;-63
2022/07/25 07:46:11;;;;;;;10.75;8.52;;;23.80;99.90;;;;;;5044966;28;20044;-63
2022/07/25 07:48:37;;;;;;;14.27;10.75;;;23.80;99.90;;;;;;5042265;28;20079;-64
2022/07/25 07:51:03;;;;;;;22.95;16.17;;;23.90;99.90;;;;;;5039330;28;20073;-64
2022/07/25 07:56:20;;;;;;;7.32;6.07;;;23.80;99.90;;;;;;5046673;28;20048;-67
2022/07/25 07:58:46;;;;;;;11.77;7.38;;;23.80;99.90;;;;;;5049268;28;20053;-66
2022/07/25 08:01:11;;;;;;;8.90;6.78;;;23.60;99.90;;;;;;5049153;28;20056;-67
2022/07/25 08:03:37;;;;;;;9.88;7.00;;;23.80;99.90;;;;;;5050777;28;20044;-65
2022/07/25 08:06:04;;;;;;;25.67;19.20;;;23.80;99.90;;;;;;5048560;28;20052;-65
2022/07/25 08:08:30;;;;;;;33.15;20.38;;;23.90;99.90;;;;;;5049436;28;20079;-66
2022/07/25 08:10:57;;;;;;;10.80;7.30;;;23.50;99.90;;;;;;5046012;28;20514;-64
2022/07/25 08:13:32;;;;;;;8.23;4.75;;;23.90;99.90;;;;;;5043332;28;20041;-63
2022/07/25 08:16:00;;;;;;;6.10;3.55;;;23.80;99.90;;;;;;5048024;28;20040;-65
2022/07/25 08:18:28;;;;;;;5.25;2.88;;;23.80;99.90;;;;;;5051247;28;20474;-63
2022/07/25 08:20:54;;;;;;;5.72;2.50;;;24.10;99.90;;;;;;5051394;28;20036;-64
2022/07/25 08:23:21;;;;;;;3.20;1.83;;;24.00;99.90;;;;;;5049275;28;20060;-65
2022/07/25 08:25:47;;;;;;;3.90;1.52;;;23.70;99.90;;;;;;5051257;28;20075;-64
2022/07/25 08:28:13;;;;;;;2.92;1.33;;;24.00;99.90;;;;;;5049916;28;20059;-62
2022/07/25 08:30:40;;;;;;;3.25;0.95;;;23.80;99.90;;;;;;5056437;28;20040;-64
2022/07/25 08:33:12;;;;;;;1.75;0.95;;;23.60;99.90;;;;;;5048006;28;20136;-65
2022/07/25 08:35:38;;;;;;;3.10;1.35;;;23.50;99.90;;;;;;5049715;28;20056;-64
2022/07/25 08:38:05;;;;;;;3.22;1.40;;;23.50;99.90;;;;;;5050932;28;20044;-65
2022/07/25 08:40:32;;;;;;;2.97;1.30;;;23.20;99.90;;;;;;5054713;28;20045;-65
2022/07/25 08:42:58;;;;;;;4.15;1.65;;;22.90;99.90;;;;;;5050392;28;20368;-65
2022/07/25 08:45:27;;;;;;;1.70;1.17;;;23.20;99.90;;;;;;5053571;28;20036;-65
2022/07/25 08:47:53;;;;;;;2.28;1.20;;;23.20;99.90;;;;;;5052982;28;20140;-65
2022/07/25 08:50:22;;;;;;;1.88;1.10;;;22.90;99.90;;;;;;5056536;28;20043;-64
2022/07/25 08:52:48;;;;;;;4.40;1.35;;;22.90;99.90;;;;;;5055288;28;20051;-64
2022/07/25 08:55:19;;;;;;;5.03;1.40;;;23.00;99.90;;;;;;5053366;28;20037;-63
2022/07/25 08:57:47;;;;;;;7.10;1.50;;;23.30;99.90;;;;;;5055949;28;20052;-64
2022/07/25 09:00:16;;;;;;;4.50;1.60;;;23.00;99.90;;;;;;5053086;28;20049;-63
2022/07/25 09:02:41;;;;;;;2.80;1.40;;;23.10;99.90;;;;;;5054367;28;20123;-65
2022/07/25 09:05:08;;;;;;;4.72;1.52;;;23.20;99.90;;;;;;5057694;28;20107;-65
2022/07/25 09:07:40;;;;;;;3.63;1.77;;;23.40;99.90;;;;;;5061549;28;20068;-63
2022/07/25 09:10:26;;;;;;;3.10;1.73;;;23.50;99.90;;;;;;5054110;28;20043;-64
2022/07/25 09:12:54;;;;;;;4.75;1.30;;;24.00;99.90;;;;;;5053639;28;20487;-63
2022/07/25 09:15:25;;;;;;;5.22;1.77;;;24.10;99.90;;;;;;5052704;28;20033;-64
2022/07/25 09:17:52;;;;;;;5.70;1.60;;;24.00;99.90;;;;;;5053721;28;20044;-63
2022/07/25 09:20:18;;;;;;;2.10;1.42;;;24.10;99.90;;;;;;5046250;28;20044;-64
2022/07/25 09:22:44;;;;;;;4.18;1.55;;;24.10;99.90;;;;;;5050893;28;20410;-64
2022/07/25 09:25:21;;;;;;;4.10;1.30;;;24.10;99.90;;;;;;5055795;28;20094;-64
2022/07/25 09:27:46;;;;;;;3.90;1.48;;;24.30;99.90;;;;;;5052509;28;20120;-65
2022/07/25 09:30:13;;;;;;;3.13;1.35;;;24.20;99.90;;;;;;5053802;28;20112;-64
2022/07/25 09:32:39;;;;;;;6.85;1.92;;;24.30;99.90;;;;;;5052322;28;20068;-64
2022/07/25 09:35:05;;;;;;;5.60;1.20;;;24.20;99.90;;;;;;5057923;28;20454;-65
2022/07/25 09:37:31;;;;;;;2.33;1.02;;;24.50;99.90;;;;;;5053489;28;20164;-64
2022/07/25 09:39:56;;;;;;;2.60;1.13;;;24.40;99.90;;;;;;5049974;28;20127;-64
2022/07/25 09:42:27;;;;;;;2.20;1.13;;;24.40;99.90;;;;;;5053421;28;20040;-63
2022/07/25 09:45:02;;;;;;;2.45;0.98;;;24.20;99.90;;;;;;5052197;28;20045;-64
2022/07/25 09:47:29;;;;;;;2.42;1.00;;;24.50;99.90;;;;;;5054104;28;20094;-65
2022/07/25 09:49:55;;;;;;;1.98;1.00;;;24.30;99.90;;;;;;5046743;28;20387;-64
2022/07/25 09:52:21;;;;;;;1.70;1.30;;;24.30;99.90;;;;;;5052525;28;20094;-66
2022/07/25 09:54:47;;;;;;;3.63;1.60;;;24.70;99.90;;;;;;5053700;28;20037;-65
2022/07/25 09:57:13;;;;;;;5.53;1.30;;;24.40;99.90;;;;;;5052864;28;20456;-64
2022/07/25 09:59:39;;;;;;;4.25;1.17;;;24.40;99.90;;;;;;5050507;28;20037;-65
2022/07/25 10:02:21;;;;;;;6.60;1.85;;;24.50;99.90;;;;;;5053179;28;20120;-65
2022/07/25 10:05:07;;;;;;;5.25;1.38;;;24.20;99.90;;;;;;5052174;28;20039;-65
2022/07/25 10:07:41;;;;;;;2.88;1.13;;;24.00;99.90;;;;;;5049429;28;20075;-67
2022/07/25 10:10:07;;;;;;;2.63;0.57;;;24.10;99.90;;;;;;5051121;28;20049;-65
2022/07/25 10:12:33;;;;;;;3.40;1.05;;;24.10;99.90;;;;;;5052857;28;20116;-65
2022/07/25 10:15:05;;;;;;;7.03;1.65;;;24.20;99.90;;;;;;5051828;28;20029;-64
2022/07/25 10:17:31;;;;;;;4.50;0.70;;;24.10;99.90;;;;;;5052636;28;20115;-66
2022/07/25 10:19:57;;;;;;;3.75;1.33;;;23.90;99.90;;;;;;5056279;28;20116;-65
2022/07/25 10:22:34;;;;;;;5.85;1.30;;;24.20;99.90;;;;;;5052147;28;20029;-65
2022/07/25 10:25:09;;;;;;;3.05;0.77;;;24.10;99.90;;;;;;5049148;28;20120;-65
2022/07/25 10:27:47;;;;;;;3.38;1.42;;;24.30;99.90;;;;;;5050913;28;20447;-65
2022/07/25 10:30:23;;;;;;;3.40;1.10;;;23.90;99.90;;;;;;5055992;28;20037;-64
2022/07/25 10:32:56;;;;;;;4.47;1.65;;;23.90;99.90;;;;;;5049504;28;20033;-64
2022/07/25 10:35:24;;;;;;;4.18;1.52;;;24.00;99.90;;;;;;5049917;28;20486;-67
2022/07/25 10:37:51;;;;;;;5.38;1.58;;;23.70;99.90;;;;;;5047445;28;20053;-65
2022/07/25 10:40:28;;;;;;;4.10;1.42;;;24.20;99.90;;;;;;5056838;28;20529;-65
2022/07/25 10:43:12;;;;;;;8.88;2.03;;;23.60;99.90;;;;;;5052349;28;20119;-65
2022/07/25 10:45:47;;;;;;;2.88;1.40;;;25.20;99.90;;;;;;5052018;28;20106;-65
2022/07/25 10:48:30;;;;;;;6.28;1.58;;;23.50;99.90;;;;;;5049185;28;20048;-65
2022/07/25 10:51:02;;;;;;;5.60;1.63;;;23.70;99.90;;;;;;5049993;28;20060;-67
2022/07/25 10:53:37;;;;;;;3.75;1.38;;;23.50;99.90;;;;;;5052184;28;20072;-65
2022/07/25 10:56:19;;;;;;;9.32;1.55;;;23.90;99.90;;;;;;5053605;28;20041;-64
2022/07/25 10:58:51;;;;;;;6.65;1.67;;;23.80;99.90;;;;;;5047313;28;20079;-65
2022/07/25 11:01:28;;;;;;;6.32;1.70;;;24.00;99.90;;;;;;5047805;28;20728;-65
2022/07/25 11:04:02;;;;;;;5.68;1.63;;;24.00;99.90;;;;;;5052106;28;20087;-65
2022/07/25 11:06:39;;;;;;;6.65;2.65;;;24.00;99.90;;;;;;5049695;28;20427;-64
2022/07/25 11:09:23;;;;;;;6.13;1.67;;;24.10;99.90;;;;;;5049431;28;20059;-66
2022/07/25 11:11:51;;;;;;;10.57;1.57;;;24.00;99.90;;;;;;5047279;28;20048;-65
2022/07/25 11:14:21;;;;;;;7.03;1.70;;;24.00;99.90;;;;;;5044986;28;20033;-65
2022/07/25 11:16:49;;;;;;;4.22;1.73;;;23.80;99.90;;;;;;5050755;28;20106;-65
2022/07/25 11:19:21;;;;;;;6.90;1.58;;;23.80;99.90;;;;;;5044195;28;20037;-64
2022/07/25 11:21:51;;;;;;;7.90;1.50;;;23.80;99.90;;;;;;5054754;28;20114;-65
2022/07/25 11:24:17;;;;;;;5.38;1.80;;;24.00;99.90;;;;;;5042688;28;20033;-65
2022/07/25 11:26:47;;;;;;;5.90;2.28;;;23.90;99.90;;;;;;5054297;28;20041;-66
2022/07/25 11:29:21;;;;;;;4.65;1.52;;;24.00;99.90;;;;;;5047781;28;20483;-65
2022/07/25 11:31:55;;;;;;;4.03;1.80;;;24.20;99.90;;;;;;5053988;28;20044;-65
2022/07/25 11:34:23;;;;;;;10.25;2.72;;;24.10;99.90;;;;;;5051681;28;20048;-65
2022/07/25 11:36:50;;;;;;;6.78;1.77;;;23.80;99.90;;;;;;5054184;28;20036;-65
2022/07/25 11:39:16;;;;;;;5.07;1.33;;;23.80;99.90;;;;;;5051883;28;20041;-66
2022/07/25 11:41:42;;;;;;;3.67;1.25;;;23.70;99.90;;;;;;5051641;28;20047;-65
2022/07/25 11:44:08;;;;;;;8.90;1.50;;;23.80;99.90;;;;;;5059780;28;20127;-65
2022/07/25 11:46:43;;;;;;;4.75;0.80;;;23.80;99.90;;;;;;5050180;28;20495;-65
2022/07/25 11:49:09;;;;;;;3.00;1.05;;;23.80;99.90;;;;;;5048001;28;20041;-65
2022/07/25 11:51:38;;;;;;;5.43;1.13;;;23.80;99.90;;;;;;5050648;28;20372;-66
2022/07/25 11:54:09;;;;;;;3.50;1.20;;;24.00;99.90;;;;;;5054684;28;20033;-65
2022/07/25 11:56:38;;;;;;;6.15;1.65;;;24.00;99.90;;;;;;5045949;28;20037;-65
2022/07/25 11:59:04;;;;;;;8.05;1.48;;;24.00;99.90;;;;;;5051015;28;20091;-66
2022/07/25 12:01:35;;;;;;;6.88;1.60;;;23.80;99.90;;;;;;5053639;28;20076;-66
2022/07/25 12:04:15;;;;;;;4.60;1.05;;;23.80;99.90;;;;;;5051494;28;20538;-65
2022/07/25 12:06:47;;;;;;;8.38;1.30;;;23.70;99.90;;;;;;5042658;28;20480;-66
2022/07/25 12:09:18;;;;;;;10.38;2.08;;;23.70;99.90;;;;;;5049261;28;20041;-66
2022/07/25 12:11:44;;;;;;;7.43;1.17;;;24.00;99.90;;;;;;5054098;28;20075;-65
2022/07/25 12:14:11;;;;;;;7.72;1.85;;;25.50;99.90;;;;;;5056708;28;20453;-65
2022/07/25 12:16:37;;;;;;;10.40;1.45;;;24.20;99.90;;;;;;5051915;28;20067;-65
2022/07/25 12:19:07;;;;;;;7.57;1.17;;;24.20;99.90;;;;;;5053325;28;20048;-66
2022/07/25 12:21:35;;;;;;;6.32;1.10;;;24.70;99.90;;;;;;5056294;28;20032;-65
2022/07/25 12:24:01;;;;;;;7.80;1.63;;;24.30;99.90;;;;;;5055172;28;20487;-65
2022/07/25 12:26:26;;;;;;;5.88;1.50;;;24.00;99.90;;;;;;5054713;28;20045;-64
2022/07/25 12:28:52;;;;;;;7.70;1.45;;;24.10;99.90;;;;;;5054233;28;20037;-65
2022/07/25 12:31:17;;;;;;;5.53;1.48;;;24.20;99.90;;;;;;5055109;28;20025;-66
2022/07/25 12:33:43;;;;;;;9.35;1.20;;;24.00;99.90;;;;;;5054956;28;20043;-64
2022/07/25 12:36:12;;;;;;;6.68;1.42;;;23.90;99.90;;;;;;5047451;28;20087;-65
2022/07/25 12:38:38;;;;;;;8.90;1.60;;;23.80;99.90;;;;;;5056405;28;20372;-64
2022/07/25 12:41:04;;;;;;;4.82;1.08;;;23.80;99.90;;;;;;5058493;28;20040;-64
2022/07/25 12:43:29;;;;;;;5.30;1.50;;;23.80;99.90;;;;;;5064210;28;20033;-63
2022/07/25 12:45:55;;;;;;;6.30;1.45;;;23.80;99.90;;;;;;5048770;28;20048;-63